sensor_id;sensor_type;location;lat;lon;timestamp;P1;durP1;ratioP1;P2;durP2;ratioP2
27802;SDS011;15182;48.174;11.562;2022-10-14T00:00:46;3.37;;;3.27;;
27802;SDS011;15182;48.174;11.562;2022-10-14T00:03:17;3.10;;;3.00;;
27802;SDS011;15182;48.174;11.562;2022-10-14T00:05:48;3.13;;;3.03;;
27802;SDS011;15182;48.174;11.562;2022-10-14T00:08:19;3.13;;;2.93;;
27802;SDS011;15182;48.174;11.562;2022-10-14T00:10:51;3.00;;;2.90;;
27802;SDS011;15182;48.174;11.562;2022-10-14T00:13:22;3.47;;;3.23;;
27802;SDS011;15182;48.174;11.562;2022-10-14T00:15:55;4.93;;;3.60;;
27802;SDS011;15182;48.174;11.562;2022-10-14T00:18:27;3.43;;;2.80;;
27802;SDS011;15182;48.174;11.562;2022-10-14T00:20:59;3.33;;;3.23;;
27802;SDS011;15182;48.174;11.562;2022-10-14T00:23:34;3.17;;;3.07;;
27802;SDS011;15182;48.174;11.562;2022-10-14T00:26:05;3.60;;;3.43;;
27802;SDS011;15182;48.174;11.562;2022-10-14T00:28:40;3.57;;;3.47;;
27802;SDS011;15182;48.174;11.562;2022-10-14T00:31:13;4.30;;;2.73;;
27802;SDS011;15182;48.174;11.562;2022-10-14T00:33:46;3.30;;;3.20;;
27802;SDS011;15182;48.174;11.562;2022-10-14T00:36:20;3.23;;;2.90;;
27802;SDS011;15182;48.174;11.562;2022-10-14T00:38:52;3.13;;;2.93;;
27802;SDS011;15182;48.174;11.562;2022-10-14T00:41:25;2.77;;;2.77;;
27802;SDS011;15182;48.174;11.562;2022-10-14T00:43:59;3.03;;;2.93;;
27802;SDS011;15182;48.174;11.562;2022-10-14T00:46:35;2.93;;;2.73;;
27802;SDS011;15182;48.174;11.562;2022-10-14T00:49:09;3.23;;;2.97;;
27802;SDS011;15182;48.174;11.562;2022-10-14T00:51:45;3.23;;;3.10;;
27802;SDS011;15182;48.174;11.562;2022-10-14T00:54:23;2.90;;;2.80;;
27802;SDS011;15182;48.174;11.562;2022-10-14T00:57:02;3.03;;;2.90;;
27802;SDS011;15182;48.174;11.562;2022-10-14T00:59:33;2.90;;;2.90;;
27802;SDS011;15182;48.174;11.562;2022-10-14T01:02:06;3.27;;;3.17;;
27802;SDS011;15182;48.174;11.562;2022-10-14T01:04:38;3.43;;;3.20;;
27802;SDS011;15182;48.174;11.562;2022-10-14T01:07:13;3.20;;;3.20;;
27802;SDS011;15182;48.174;11.562;2022-10-14T01:09:56;2.93;;;2.57;;
27802;SDS011;15182;48.174;11.562;2022-10-14T01:12:36;3.20;;;3.20;;
27802;SDS011;15182;48.174;11.562;2022-10-14T01:15:22;3.50;;;3.20;;
27802;SDS011;15182;48.174;11.562;2022-10-14T01:18:03;3.53;;;3.33;;
27802;SDS011;15182;48.174;11.562;2022-10-14T01:20:48;3.03;;;2.87;;
27802;SDS011;15182;48.174;11.562;2022-10-14T01:30:00;2.63;;;2.63;;
27802;SDS011;15182;48.174;11.562;2022-10-14T01:32:42;2.60;;;2.60;;
27802;SDS011;15182;48.174;11.562;2022-10-14T01:35:27;2.50;;;2.40;;
27802;SDS011;15182;48.174;11.562;2022-10-14T01:38:06;2.77;;;2.57;;
27802;SDS011;15182;48.174;11.562;2022-10-14T01:40:47;2.83;;;2.50;;
27802;SDS011;15182;48.174;11.562;2022-10-14T01:43:24;2.30;;;2.30;;
27802;SDS011;15182;48.174;11.562;2022-10-14T01:46:01;3.23;;;2.63;;
27802;SDS011;15182;48.174;11.562;2022-10-14T01:48:40;2.17;;;2.17;;
27802;SDS011;15182;48.174;11.562;2022-10-14T01:51:17;3.93;;;2.40;;
27802;SDS011;15182;48.174;11.562;2022-10-14T01:53:57;2.83;;;2.67;;
27802;SDS011;15182;48.174;11.562;2022-10-14T01:56:32;2.30;;;2.30;;
27802;SDS011;15182;48.174;11.562;2022-10-14T01:59:07;2.13;;;2.10;;
27802;SDS011;15182;48.174;11.562;2022-10-14T02:01:43;2.00;;;2.00;;
27802;SDS011;15182;48.174;11.562;2022-10-14T02:04:15;2.13;;;2.13;;
27802;SDS011;15182;48.174;11.562;2022-10-14T02:06:49;2.20;;;2.20;;
27802;SDS011;15182;48.174;11.562;2022-10-14T02:09:30;2.13;;;2.13;;
27802;SDS011;15182;48.174;11.562;2022-10-14T02:12:13;2.60;;;2.50;;
27802;SDS011;15182;48.174;11.562;2022-10-14T02:14:55;4.50;;;2.30;;
27802;SDS011;15182;48.174;11.562;2022-10-14T02:17:34;2.40;;;2.40;;
27802;SDS011;15182;48.174;11.562;2022-10-14T02:20:15;2.37;;;2.27;;
27802;SDS011;15182;48.174;11.562;2022-10-14T02:22:55;2.40;;;2.30;;
27802;SDS011;15182;48.174;11.562;2022-10-14T02:25:31;2.23;;;2.23;;
27802;SDS011;15182;48.174;11.562;2022-10-14T02:28:06;2.07;;;2.00;;
27802;SDS011;15182;48.174;11.562;2022-10-14T02:30:42;2.40;;;2.20;;
27802;SDS011;15182;48.174;11.562;2022-10-14T02:33:18;2.50;;;2.30;;
27802;SDS011;15182;48.174;11.562;2022-10-14T02:35:57;2.43;;;2.37;;
27802;SDS011;15182;48.174;11.562;2022-10-14T02:38:30;2.10;;;2.00;;
27802;SDS011;15182;48.174;11.562;2022-10-14T02:41:02;2.20;;;2.20;;
27802;SDS011;15182;48.174;11.562;2022-10-14T02:43:38;2.20;;;2.20;;
27802;SDS011;15182;48.174;11.562;2022-10-14T02:46:09;2.67;;;2.43;;
27802;SDS011;15182;48.174;11.562;2022-10-14T02:48:46;2.30;;;2.20;;
27802;SDS011;15182;48.174;11.562;2022-10-14T02:51:18;4.40;;;2.80;;
27802;SDS011;15182;48.174;11.562;2022-10-14T02:53:49;2.70;;;2.63;;
27802;SDS011;15182;48.174;11.562;2022-10-14T02:56:24;2.23;;;2.20;;
27802;SDS011;15182;48.174;11.562;2022-10-14T02:58:58;2.50;;;2.30;;
27802;SDS011;15182;48.174;11.562;2022-10-14T03:01:30;2.90;;;2.70;;
27802;SDS011;15182;48.174;11.562;2022-10-14T03:04:04;2.43;;;2.20;;
27802;SDS011;15182;48.174;11.562;2022-10-14T03:06:35;2.07;;;2.07;;
27802;SDS011;15182;48.174;11.562;2022-10-14T03:09:07;2.20;;;2.10;;
27802;SDS011;15182;48.174;11.562;2022-10-14T03:11:40;2.17;;;2.17;;
27802;SDS011;15182;48.174;11.562;2022-10-14T03:14:15;6.07;;;2.40;;
27802;SDS011;15182;48.174;11.562;2022-10-14T03:16:48;2.87;;;2.63;;
27802;SDS011;15182;48.174;11.562;2022-10-14T03:19:27;2.33;;;2.30;;
27802;SDS011;15182;48.174;11.562;2022-10-14T03:22:01;3.00;;;2.40;;
27802;SDS011;15182;48.174;11.562;2022-10-14T03:24:35;2.20;;;2.20;;
27802;SDS011;15182;48.174;11.562;2022-10-14T03:27:32;2.60;;;2.40;;
27802;SDS011;15182;48.174;11.562;2022-10-14T03:30:08;2.33;;;2.23;;
27802;SDS011;15182;48.174;11.562;2022-10-14T03:32:53;2.10;;;2.10;;
27802;SDS011;15182;48.174;11.562;2022-10-14T03:35:48;2.50;;;2.40;;
27802;SDS011;15182;48.174;11.562;2022-10-14T03:38:30;2.10;;;2.10;;
27802;SDS011;15182;48.174;11.562;2022-10-14T03:41:01;2.57;;;2.33;;
27802;SDS011;15182;48.174;11.562;2022-10-14T03:43:34;3.30;;;2.40;;
27802;SDS011;15182;48.174;11.562;2022-10-14T03:46:06;2.60;;;2.50;;
27802;SDS011;15182;48.174;11.562;2022-10-14T03:48:37;3.00;;;2.50;;
27802;SDS011;15182;48.174;11.562;2022-10-14T03:51:10;2.33;;;2.33;;
27802;SDS011;15182;48.174;11.562;2022-10-14T03:53:42;2.63;;;2.50;;
27802;SDS011;15182;48.174;11.562;2022-10-14T03:56:20;2.97;;;2.87;;
27802;SDS011;15182;48.174;11.562;2022-10-14T03:58:52;2.70;;;2.60;;
27802;SDS011;15182;48.174;11.562;2022-10-14T04:01:24;3.30;;;3.13;;
27802;SDS011;15182;48.174;11.562;2022-10-14T04:04:18;2.80;;;2.80;;
27802;SDS011;15182;48.174;11.562;2022-10-14T04:06:51;2.70;;;2.60;;
27802;SDS011;15182;48.174;11.562;2022-10-14T04:09:22;3.13;;;3.07;;
27802;SDS011;15182;48.174;11.562;2022-10-14T04:11:54;2.80;;;2.70;;
27802;SDS011;15182;48.174;11.562;2022-10-14T04:14:44;3.17;;;2.90;;
27802;SDS011;15182;48.174;11.562;2022-10-14T04:17:15;2.70;;;2.60;;
27802;SDS011;15182;48.174;11.562;2022-10-14T04:19:47;2.83;;;2.73;;
27802;SDS011;15182;48.174;11.562;2022-10-14T04:22:19;2.53;;;2.43;;
27802;SDS011;15182;48.174;11.562;2022-10-14T04:24:54;2.53;;;2.43;;
27802;SDS011;15182;48.174;11.562;2022-10-14T04:27:25;2.87;;;2.67;;
27802;SDS011;15182;48.174;11.562;2022-10-14T04:30:02;2.60;;;2.50;;
27802;SDS011;15182;48.174;11.562;2022-10-14T04:32:44;2.40;;;2.40;;
27802;SDS011;15182;48.174;11.562;2022-10-14T04:35:17;2.90;;;2.80;;
27802;SDS011;15182;48.174;11.562;2022-10-14T04:37:55;2.57;;;2.57;;
27802;SDS011;15182;48.174;11.562;2022-10-14T04:40:28;2.73;;;2.63;;
27802;SDS011;15182;48.174;11.562;2022-10-14T04:43:01;2.90;;;2.80;;
27802;SDS011;15182;48.174;11.562;2022-10-14T04:45:37;2.70;;;2.70;;
27802;SDS011;15182;48.174;11.562;2022-10-14T04:48:10;2.43;;;2.43;;
27802;SDS011;15182;48.174;11.562;2022-10-14T04:50:43;2.63;;;2.60;;
27802;SDS011;15182;48.174;11.562;2022-10-14T04:53:45;2.57;;;2.47;;
27802;SDS011;15182;48.174;11.562;2022-10-14T04:56:30;2.70;;;2.70;;
27802;SDS011;15182;48.174;11.562;2022-10-14T04:59:02;2.40;;;2.40;;
27802;SDS011;15182;48.174;11.562;2022-10-14T05:01:50;3.87;;;2.60;;
27802;SDS011;15182;48.174;11.562;2022-10-14T05:04:26;2.40;;;2.40;;
27802;SDS011;15182;48.174;11.562;2022-10-14T05:06:59;2.63;;;2.50;;
27802;SDS011;15182;48.174;11.562;2022-10-14T05:09:32;2.93;;;2.83;;
27802;SDS011;15182;48.174;11.562;2022-10-14T05:12:05;2.90;;;2.80;;
27802;SDS011;15182;48.174;11.562;2022-10-14T05:14:45;2.57;;;2.57;;
27802;SDS011;15182;48.174;11.562;2022-10-14T05:17:25;2.67;;;2.57;;
27802;SDS011;15182;48.174;11.562;2022-10-14T05:19:59;3.30;;;3.00;;
27802;SDS011;15182;48.174;11.562;2022-10-14T05:22:31;2.90;;;2.80;;
27802;SDS011;15182;48.174;11.562;2022-10-14T05:25:05;3.27;;;3.17;;
27802;SDS011;15182;48.174;11.562;2022-10-14T05:27:38;2.93;;;2.83;;
27802;SDS011;15182;48.174;11.562;2022-10-14T05:30:10;2.97;;;2.87;;
27802;SDS011;15182;48.174;11.562;2022-10-14T05:32:48;2.87;;;2.77;;
27802;SDS011;15182;48.174;11.562;2022-10-14T05:35:20;2.97;;;2.87;;
27802;SDS011;15182;48.174;11.562;2022-10-14T05:37:53;2.77;;;2.77;;
27802;SDS011;15182;48.174;11.562;2022-10-14T05:40:26;2.67;;;2.57;;
27802;SDS011;15182;48.174;11.562;2022-10-14T05:42:58;2.83;;;2.83;;
27802;SDS011;15182;48.174;11.562;2022-10-14T05:45:31;2.87;;;2.80;;
27802;SDS011;15182;48.174;11.562;2022-10-14T05:48:02;3.10;;;3.00;;
27802;SDS011;15182;48.174;11.562;2022-10-14T05:50:35;2.70;;;2.53;;
27802;SDS011;15182;48.174;11.562;2022-10-14T05:53:10;2.93;;;2.90;;
27802;SDS011;15182;48.174;11.562;2022-10-14T05:55:47;2.80;;;2.70;;
27802;SDS011;15182;48.174;11.562;2022-10-14T05:58:20;3.20;;;3.10;;
27802;SDS011;15182;48.174;11.562;2022-10-14T06:00:53;2.80;;;2.70;;
27802;SDS011;15182;48.174;11.562;2022-10-14T06:03:27;3.00;;;2.90;;
27802;SDS011;15182;48.174;11.562;2022-10-14T06:05:59;2.47;;;2.47;;
27802;SDS011;15182;48.174;11.562;2022-10-14T06:08:30;3.50;;;3.30;;
27802;SDS011;15182;48.174;11.562;2022-10-14T06:11:02;2.80;;;2.70;;
27802;SDS011;15182;48.174;11.562;2022-10-14T06:13:34;3.30;;;3.20;;
27802;SDS011;15182;48.174;11.562;2022-10-14T06:16:07;4.00;;;2.80;;
27802;SDS011;15182;48.174;11.562;2022-10-14T06:18:39;3.73;;;2.90;;
27802;SDS011;15182;48.174;11.562;2022-10-14T06:21:11;3.07;;;3.00;;
27802;SDS011;15182;48.174;11.562;2022-10-14T06:23:42;3.23;;;3.03;;
27802;SDS011;15182;48.174;11.562;2022-10-14T06:26:14;4.27;;;3.23;;
27802;SDS011;15182;48.174;11.562;2022-10-14T06:28:46;3.47;;;3.17;;
27802;SDS011;15182;48.174;11.562;2022-10-14T06:31:19;3.53;;;3.23;;
27802;SDS011;15182;48.174;11.562;2022-10-14T06:33:50;3.57;;;3.37;;
27802;SDS011;15182;48.174;11.562;2022-10-14T06:36:23;5.53;;;2.83;;
27802;SDS011;15182;48.174;11.562;2022-10-14T06:38:54;3.07;;;3.00;;
27802;SDS011;15182;48.174;11.562;2022-10-14T06:41:27;3.07;;;2.97;;
27802;SDS011;15182;48.174;11.562;2022-10-14T06:43:58;3.27;;;3.07;;
27802;SDS011;15182;48.174;11.562;2022-10-14T06:46:31;3.20;;;2.90;;
27802;SDS011;15182;48.174;11.562;2022-10-14T06:49:02;2.90;;;2.80;;
27802;SDS011;15182;48.174;11.562;2022-10-14T06:51:34;2.83;;;2.70;;
27802;SDS011;15182;48.174;11.562;2022-10-14T06:54:05;3.13;;;3.03;;
27802;SDS011;15182;48.174;11.562;2022-10-14T06:56:38;3.90;;;3.00;;
27802;SDS011;15182;48.174;11.562;2022-10-14T06:59:11;3.43;;;3.33;;
27802;SDS011;15182;48.174;11.562;2022-10-14T07:01:42;3.17;;;2.93;;
27802;SDS011;15182;48.174;11.562;2022-10-14T07:04:14;3.40;;;3.13;;
27802;SDS011;15182;48.174;11.562;2022-10-14T07:06:45;3.70;;;2.90;;
27802;SDS011;15182;48.174;11.562;2022-10-14T07:09:16;2.60;;;2.53;;
27802;SDS011;15182;48.174;11.562;2022-10-14T07:11:49;2.80;;;2.70;;
27802;SDS011;15182;48.174;11.562;2022-10-14T07:14:20;3.30;;;3.10;;
27802;SDS011;15182;48.174;11.562;2022-10-14T07:16:52;2.80;;;2.70;;
27802;SDS011;15182;48.174;11.562;2022-10-14T07:19:23;3.47;;;3.17;;
27802;SDS011;15182;48.174;11.562;2022-10-14T07:21:54;2.90;;;2.90;;
27802;SDS011;15182;48.174;11.562;2022-10-14T07:24:25;2.97;;;2.70;;
27802;SDS011;15182;48.174;11.562;2022-10-14T07:26:58;3.77;;;3.17;;
27802;SDS011;15182;48.174;11.562;2022-10-14T07:29:32;2.60;;;2.60;;
27802;SDS011;15182;48.174;11.562;2022-10-14T07:32:03;3.10;;;2.90;;
27802;SDS011;15182;48.174;11.562;2022-10-14T07:34:36;3.10;;;2.87;;
27802;SDS011;15182;48.174;11.562;2022-10-14T07:37:07;3.13;;;3.03;;
27802;SDS011;15182;48.174;11.562;2022-10-14T07:39:40;2.93;;;2.83;;
27802;SDS011;15182;48.174;11.562;2022-10-14T07:42:13;3.87;;;3.33;;
27802;SDS011;15182;48.174;11.562;2022-10-14T07:44:44;2.60;;;2.60;;
27802;SDS011;15182;48.174;11.562;2022-10-14T07:47:20;3.60;;;2.90;;
27802;SDS011;15182;48.174;11.562;2022-10-14T07:49:52;2.93;;;2.83;;
27802;SDS011;15182;48.174;11.562;2022-10-14T07:52:23;2.97;;;2.87;;
27802;SDS011;15182;48.174;11.562;2022-10-14T07:54:54;2.57;;;2.53;;
27802;SDS011;15182;48.174;11.562;2022-10-14T07:57:27;2.33;;;2.23;;
27802;SDS011;15182;48.174;11.562;2022-10-14T07:59:58;2.33;;;2.10;;
27802;SDS011;15182;48.174;11.562;2022-10-14T08:02:39;2.20;;;2.20;;
27802;SDS011;15182;48.174;11.562;2022-10-14T08:05:10;2.30;;;2.30;;
27802;SDS011;15182;48.174;11.562;2022-10-14T08:07:44;2.23;;;2.13;;
27802;SDS011;15182;48.174;11.562;2022-10-14T08:10:15;2.30;;;2.20;;
27802;SDS011;15182;48.174;11.562;2022-10-14T08:12:47;2.77;;;2.60;;
27802;SDS011;15182;48.174;11.562;2022-10-14T08:15:19;2.10;;;2.10;;
27802;SDS011;15182;48.174;11.562;2022-10-14T08:17:53;2.10;;;2.03;;
27802;SDS011;15182;48.174;11.562;2022-10-14T08:20:24;2.30;;;2.20;;
27802;SDS011;15182;48.174;11.562;2022-10-14T08:22:55;2.30;;;2.20;;
27802;SDS011;15182;48.174;11.562;2022-10-14T08:25:27;2.10;;;2.00;;
27802;SDS011;15182;48.174;11.562;2022-10-14T08:27:59;2.20;;;2.20;;
27802;SDS011;15182;48.174;11.562;2022-10-14T08:30:30;2.17;;;2.17;;
27802;SDS011;15182;48.174;11.562;2022-10-14T08:33:02;1.90;;;1.90;;
27802;SDS011;15182;48.174;11.562;2022-10-14T08:35:35;2.10;;;2.00;;
27802;SDS011;15182;48.174;11.562;2022-10-14T08:38:06;2.50;;;2.30;;
27802;SDS011;15182;48.174;11.562;2022-10-14T08:40:47;1.97;;;1.90;;
27802;SDS011;15182;48.174;11.562;2022-10-14T08:43:28;2.60;;;2.20;;
27802;SDS011;15182;48.174;11.562;2022-10-14T08:46:03;3.93;;;2.10;;
27802;SDS011;15182;48.174;11.562;2022-10-14T08:48:45;2.30;;;2.10;;
27802;SDS011;15182;48.174;11.562;2022-10-14T08:51:19;3.50;;;1.70;;
27802;SDS011;15182;48.174;11.562;2022-10-14T08:53:54;2.83;;;2.10;;
27802;SDS011;15182;48.174;11.562;2022-10-14T08:56:35;2.37;;;1.70;;
27802;SDS011;15182;48.174;11.562;2022-10-14T08:59:11;1.90;;;1.80;;
27802;SDS011;15182;48.174;11.562;2022-10-14T09:01:50;1.73;;;1.63;;
27802;SDS011;15182;48.174;11.562;2022-10-14T09:04:25;1.70;;;1.70;;
27802;SDS011;15182;48.174;11.562;2022-10-14T09:06:58;1.80;;;1.77;;
27802;SDS011;15182;48.174;11.562;2022-10-14T09:09:32;2.77;;;1.67;;
27802;SDS011;15182;48.174;11.562;2022-10-14T09:12:11;1.90;;;1.90;;
27802;SDS011;15182;48.174;11.562;2022-10-14T09:14:48;1.60;;;1.60;;
27802;SDS011;15182;48.174;11.562;2022-10-14T09:17:35;1.77;;;1.77;;
27802;SDS011;15182;48.174;11.562;2022-10-14T09:20:16;1.70;;;1.70;;
27802;SDS011;15182;48.174;11.562;2022-10-14T09:22:53;1.50;;;1.50;;
27802;SDS011;15182;48.174;11.562;2022-10-14T09:25:36;1.77;;;1.67;;
27802;SDS011;15182;48.174;11.562;2022-10-14T09:28:11;1.70;;;1.70;;
27802;SDS011;15182;48.174;11.562;2022-10-14T09:30:45;2.33;;;2.10;;
27802;SDS011;15182;48.174;11.562;2022-10-14T09:33:17;3.50;;;1.77;;
27802;SDS011;15182;48.174;11.562;2022-10-14T09:35:57;1.80;;;1.70;;
27802;SDS011;15182;48.174;11.562;2022-10-14T09:38:28;1.40;;;1.40;;
27802;SDS011;15182;48.174;11.562;2022-10-14T09:41:01;1.70;;;1.60;;
27802;SDS011;15182;48.174;11.562;2022-10-14T09:43:37;1.57;;;1.57;;
27802;SDS011;15182;48.174;11.562;2022-10-14T09:46:49;1.63;;;1.53;;
27802;SDS011;15182;48.174;11.562;2022-10-14T09:49:24;1.33;;;1.33;;
27802;SDS011;15182;48.174;11.562;2022-10-14T09:52:05;2.83;;;1.80;;
27802;SDS011;15182;48.174;11.562;2022-10-14T09:54:50;2.03;;;1.57;;
27802;SDS011;15182;48.174;11.562;2022-10-14T09:57:25;1.93;;;1.50;;
27802;SDS011;15182;48.174;11.562;2022-10-14T09:59:59;1.53;;;1.53;;
27802;SDS011;15182;48.174;11.562;2022-10-14T10:02:50;1.53;;;1.53;;
27802;SDS011;15182;48.174;11.562;2022-10-14T10:05:23;1.50;;;1.50;;
27802;SDS011;15182;48.174;11.562;2022-10-14T10:08:13;1.40;;;1.40;;
27802;SDS011;15182;48.174;11.562;2022-10-14T10:10:58;1.10;;;1.10;;
27802;SDS011;15182;48.174;11.562;2022-10-14T10:13:39;1.70;;;1.40;;
27802;SDS011;15182;48.174;11.562;2022-10-14T10:16:17;1.20;;;1.20;;
27802;SDS011;15182;48.174;11.562;2022-10-14T10:18:54;1.50;;;1.50;;
27802;SDS011;15182;48.174;11.562;2022-10-14T10:21:39;2.50;;;1.40;;
27802;SDS011;15182;48.174;11.562;2022-10-14T10:24:15;2.63;;;1.47;;
27802;SDS011;15182;48.174;11.562;2022-10-14T10:26:49;1.52;;;1.40;;
27802;SDS011;15182;48.174;11.562;2022-10-14T10:29:24;1.20;;;1.20;;
27802;SDS011;15182;48.174;11.562;2022-10-14T10:32:02;3.40;;;1.40;;
27802;SDS011;15182;48.174;11.562;2022-10-14T10:34:47;1.10;;;1.10;;
27802;SDS011;15182;48.174;11.562;2022-10-14T10:37:33;1.40;;;1.30;;
27802;SDS011;15182;48.174;11.562;2022-10-14T10:40:20;1.40;;;1.30;;
27802;SDS011;15182;48.174;11.562;2022-10-14T10:43:09;1.45;;;1.45;;
27802;SDS011;15182;48.174;11.562;2022-10-14T10:45:58;1.23;;;1.23;;
27802;SDS011;15182;48.174;11.562;2022-10-14T10:48:40;1.30;;;1.30;;
27802;SDS011;15182;48.174;11.562;2022-10-14T10:51:18;1.20;;;1.20;;
27802;SDS011;15182;48.174;11.562;2022-10-14T10:54:05;1.20;;;1.20;;
27802;SDS011;15182;48.174;11.562;2022-10-14T10:56:47;1.13;;;1.13;;
27802;SDS011;15182;48.174;11.562;2022-10-14T11:02:26;4.20;;;1.42;;
27802;SDS011;15182;48.174;11.562;2022-10-14T11:05:16;1.20;;;1.20;;
27802;SDS011;15182;48.174;11.562;2022-10-14T11:07:58;1.10;;;1.10;;
27802;SDS011;15182;48.174;11.562;2022-10-14T11:10:55;1.75;;;1.50;;
27802;SDS011;15182;48.174;11.562;2022-10-14T11:13:58;4.32;;;1.48;;
27802;SDS011;15182;48.174;11.562;2022-10-14T11:16:43;1.10;;;1.10;;
27802;SDS011;15182;48.174;11.562;2022-10-14T11:19:23;1.17;;;1.17;;
27802;SDS011;15182;48.174;11.562;2022-10-14T11:22:05;1.30;;;1.30;;
27802;SDS011;15182;48.174;11.562;2022-10-14T11:24:50;1.20;;;1.20;;
27802;SDS011;15182;48.174;11.562;2022-10-14T11:27:29;1.40;;;1.35;;
27802;SDS011;15182;48.174;11.562;2022-10-14T11:30:10;1.17;;;1.10;;
27802;SDS011;15182;48.174;11.562;2022-10-14T11:32:48;1.30;;;1.30;;
27802;SDS011;15182;48.174;11.562;2022-10-14T11:35:35;1.35;;;1.25;;
27802;SDS011;15182;48.174;11.562;2022-10-14T11:38:22;1.35;;;1.35;;
27802;SDS011;15182;48.174;11.562;2022-10-14T11:41:12;1.30;;;1.30;;
27802;SDS011;15182;48.174;11.562;2022-10-14T11:43:53;1.23;;;1.23;;
27802;SDS011;15182;48.174;11.562;2022-10-14T11:46:32;1.20;;;1.20;;
27802;SDS011;15182;48.174;11.562;2022-10-14T11:49:12;1.40;;;1.38;;
27802;SDS011;15182;48.174;11.562;2022-10-14T11:51:51;1.30;;;1.30;;
27802;SDS011;15182;48.174;11.562;2022-10-14T11:54:31;1.20;;;1.20;;
27802;SDS011;15182;48.174;11.562;2022-10-14T11:57:09;1.10;;;1.10;;
27802;SDS011;15182;48.174;11.562;2022-10-14T11:59:48;1.85;;;1.30;;
27802;SDS011;15182;48.174;11.562;2022-10-14T12:02:32;2.28;;;1.33;;
27802;SDS011;15182;48.174;11.562;2022-10-14T12:05:10;1.45;;;1.30;;
27802;SDS011;15182;48.174;11.562;2022-10-14T12:07:48;1.00;;;1.00;;
27802;SDS011;15182;48.174;11.562;2022-10-14T12:10:29;5.07;;;1.38;;
27802;SDS011;15182;48.174;11.562;2022-10-14T12:13:09;1.80;;;1.17;;
27802;SDS011;15182;48.174;11.562;2022-10-14T12:15:46;1.30;;;1.30;;
27802;SDS011;15182;48.174;11.562;2022-10-14T12:18:20;2.05;;;1.25;;
27802;SDS011;15182;48.174;11.562;2022-10-14T12:20:53;4.28;;;1.23;;
27802;SDS011;15182;48.174;11.562;2022-10-14T12:23:31;1.85;;;1.23;;
27802;SDS011;15182;48.174;11.562;2022-10-14T12:26:10;1.50;;;1.50;;
27802;SDS011;15182;48.174;11.562;2022-10-14T12:28:54;1.33;;;1.33;;
27802;SDS011;15182;48.174;11.562;2022-10-14T12:31:34;1.50;;;1.50;;
27802;SDS011;15182;48.174;11.562;2022-10-14T12:34:14;1.10;;;1.10;;
27802;SDS011;15182;48.174;11.562;2022-10-14T12:40:17;1.20;;;1.20;;
27802;SDS011;15182;48.174;11.562;2022-10-14T12:45:50;1.38;;;1.38;;
27802;SDS011;15182;48.174;11.562;2022-10-14T12:48:45;1.42;;;1.33;;
27802;SDS011;15182;48.174;11.562;2022-10-14T12:51:20;1.10;;;1.10;;
27802;SDS011;15182;48.174;11.562;2022-10-14T12:53:54;1.40;;;1.40;;
27802;SDS011;15182;48.174;11.562;2022-10-14T12:56:38;1.30;;;1.30;;
27802;SDS011;15182;48.174;11.562;2022-10-14T12:59:22;2.58;;;1.20;;
27802;SDS011;15182;48.174;11.562;2022-10-14T13:01:59;1.65;;;1.30;;
27802;SDS011;15182;48.174;11.562;2022-10-14T13:04:45;1.35;;;1.35;;
27802;SDS011;15182;48.174;11.562;2022-10-14T13:07:27;1.30;;;1.30;;
27802;SDS011;15182;48.174;11.562;2022-10-14T13:09:58;1.40;;;1.40;;
27802;SDS011;15182;48.174;11.562;2022-10-14T13:12:54;1.50;;;1.50;;
27802;SDS011;15182;48.174;11.562;2022-10-14T13:15:31;3.40;;;1.60;;
27802;SDS011;15182;48.174;11.562;2022-10-14T13:21:29;1.40;;;1.40;;
27802;SDS011;15182;48.174;11.562;2022-10-14T13:24:20;1.60;;;1.50;;
27802;SDS011;15182;48.174;11.562;2022-10-14T13:27:04;1.23;;;1.23;;
27802;SDS011;15182;48.174;11.562;2022-10-14T13:29:50;1.50;;;1.50;;
27802;SDS011;15182;48.174;11.562;2022-10-14T13:32:31;1.70;;;1.60;;
27802;SDS011;15182;48.174;11.562;2022-10-14T13:35:12;1.38;;;1.38;;
27802;SDS011;15182;48.174;11.562;2022-10-14T13:37:52;1.40;;;1.40;;
27802;SDS011;15182;48.174;11.562;2022-10-14T13:40:29;1.83;;;1.40;;
27802;SDS011;15182;48.174;11.562;2022-10-14T13:43:05;2.15;;;1.30;;
27802;SDS011;15182;48.174;11.562;2022-10-14T13:45:42;1.30;;;1.30;;
27802;SDS011;15182;48.174;11.562;2022-10-14T13:48:17;1.23;;;1.23;;
27802;SDS011;15182;48.174;11.562;2022-10-14T13:50:56;1.30;;;1.30;;
27802;SDS011;15182;48.174;11.562;2022-10-14T13:53:50;1.48;;;1.48;;
27802;SDS011;15182;48.174;11.562;2022-10-14T13:56:24;1.55;;;1.55;;
27802;SDS011;15182;48.174;11.562;2022-10-14T13:58:57;3.30;;;1.20;;
27802;SDS011;15182;48.174;11.562;2022-10-14T14:01:29;1.10;;;1.00;;
27802;SDS011;15182;48.174;11.562;2022-10-14T14:04:04;2.28;;;1.45;;
27802;SDS011;15182;48.174;11.562;2022-10-14T14:06:46;1.90;;;1.40;;
27802;SDS011;15182;48.174;11.562;2022-10-14T14:09:18;1.95;;;1.50;;
27802;SDS011;15182;48.174;11.562;2022-10-14T14:11:51;1.50;;;1.42;;
27802;SDS011;15182;48.174;11.562;2022-10-14T14:14:29;1.83;;;1.77;;
27802;SDS011;15182;48.174;11.562;2022-10-14T14:17:04;2.05;;;1.63;;
27802;SDS011;15182;48.174;11.562;2022-10-14T14:19:47;1.25;;;1.25;;
27802;SDS011;15182;48.174;11.562;2022-10-14T14:22:22;1.50;;;1.50;;
27802;SDS011;15182;48.174;11.562;2022-10-14T14:25:08;1.50;;;1.50;;
27802;SDS011;15182;48.174;11.562;2022-10-14T14:27:41;1.43;;;1.40;;
27802;SDS011;15182;48.174;11.562;2022-10-14T14:30:19;1.63;;;1.60;;
27802;SDS011;15182;48.174;11.562;2022-10-14T14:32:53;1.73;;;1.63;;
27802;SDS011;15182;48.174;11.562;2022-10-14T14:35:26;1.70;;;1.60;;
27802;SDS011;15182;48.174;11.562;2022-10-14T14:37:59;1.90;;;1.90;;
27802;SDS011;15182;48.174;11.562;2022-10-14T14:40:31;1.70;;;1.70;;
27802;SDS011;15182;48.174;11.562;2022-10-14T14:43:02;2.45;;;1.77;;
27802;SDS011;15182;48.174;11.562;2022-10-14T14:45:39;3.07;;;1.67;;
27802;SDS011;15182;48.174;11.562;2022-10-14T14:48:12;1.50;;;1.40;;
27802;SDS011;15182;48.174;11.562;2022-10-14T14:50:45;1.77;;;1.67;;
27802;SDS011;15182;48.174;11.562;2022-10-14T14:53:18;1.60;;;1.60;;
27802;SDS011;15182;48.174;11.562;2022-10-14T14:55:58;1.80;;;1.70;;
27802;SDS011;15182;48.174;11.562;2022-10-14T14:58:31;1.93;;;1.80;;
27802;SDS011;15182;48.174;11.562;2022-10-14T15:01:16;1.83;;;1.80;;
27802;SDS011;15182;48.174;11.562;2022-10-14T15:03:54;1.40;;;1.40;;
27802;SDS011;15182;48.174;11.562;2022-10-14T15:06:28;2.07;;;1.97;;
27802;SDS011;15182;48.174;11.562;2022-10-14T15:09:06;1.60;;;1.60;;
27802;SDS011;15182;48.174;11.562;2022-10-14T15:11:46;2.53;;;1.60;;
27802;SDS011;15182;48.174;11.562;2022-10-14T15:14:27;1.80;;;1.70;;
27802;SDS011;15182;48.174;11.562;2022-10-14T15:17:05;3.88;;;2.17;;
27802;SDS011;15182;48.174;11.562;2022-10-14T15:19:51;2.35;;;1.90;;
27802;SDS011;15182;48.174;11.562;2022-10-14T15:22:33;5.10;;;1.95;;
27802;SDS011;15182;48.174;11.562;2022-10-14T15:25:10;1.92;;;1.77;;
27802;SDS011;15182;48.174;11.562;2022-10-14T15:27:53;1.77;;;1.73;;
27802;SDS011;15182;48.174;11.562;2022-10-14T15:30:27;2.17;;;2.08;;
27802;SDS011;15182;48.174;11.562;2022-10-14T15:33:11;2.00;;;1.90;;
27802;SDS011;15182;48.174;11.562;2022-10-14T15:35:52;1.53;;;1.53;;
27802;SDS011;15182;48.174;11.562;2022-10-14T15:38:26;2.10;;;2.00;;
27802;SDS011;15182;48.174;11.562;2022-10-14T15:40:59;1.90;;;1.90;;
27802;SDS011;15182;48.174;11.562;2022-10-14T15:43:35;2.23;;;2.13;;
27802;SDS011;15182;48.174;11.562;2022-10-14T15:46:08;2.00;;;1.90;;
27802;SDS011;15182;48.174;11.562;2022-10-14T15:49:00;2.07;;;1.87;;